Southport, Connecticut
Current Conditions -  °F | °C
As of 6:52 AM on Monday 26 Jan 2015 (Local Time) from KBDR Reporting Station
Overcast Overcast  
Wind Chill:   Ceiling: 4200
Heat Index: 21°   Visibility: 10mi
Dew Point:   Wind: 13mph
Humidity: 55%   Direction: 30°NNE
Pressure: 30.05"   Gusts: NA
Location:  41.14°N, 73.28°W
Report Text: KBDR 261152Z 03011KT 10SM BKN042 OVC055 M06/M14 A3005 RMK AO2 SLP175 T10611139 11050 21061 55000
Loading
Personal Weather Stations






























Interactive Weather Map New forecast layout! Learn more

10-Day Weather Forecast

Advertisements
Track Severe Weather on mobile